<?xml version="1.0" encoding="UTF-8" standalone="no" ?>
<gpx xmlns="http://www.topografix.com/GPX/1/1" xmlns:xsi="http://www.w3.org/2001/XMLSchema-instance" xsi:schemaLocation="http://www.topografix.com/GPX/1/1 http://www.topografix.com/GPX/1/1/gpx.xsd" version="1.1" creator="VisuGPX - https://www.visugpx.com">
  <metadata>
    <name>Balade</name>
    <desc><![CDATA[essai de transfer de tracé en itinéraire]]></desc>
  </metadata>
  <trk>
    <name><![CDATA[Tracé actuel: 27 MARS 2013 06:51]]></name>
    <trkseg>
      <trkpt lat="49.07501" lon="7.1355">
        <ele>241.91</ele>
        <time>2013-03-27T04:51:19Z</time>
      </trkpt>
      <trkpt lat="49.07503" lon="7.13546">
        <ele>241.91</ele>
        <time>2013-03-27T04:51:23Z</time>
      </trkpt>
      <trkpt lat="49.07519" lon="7.13539">
        <ele>238.06</ele>
        <time>2013-03-27T04:51:41Z</time>
      </trkpt>
      <trkpt lat="49.07524" lon="7.13541">
        <ele>234.7</ele>
        <time>2013-03-27T04:51:45Z</time>
      </trkpt>
      <trkpt lat="49.07528" lon="7.13544">
        <ele>231.33</ele>
        <time>2013-03-27T04:51:49Z</time>
      </trkpt>
      <trkpt lat="49.07529" lon="7.13545">
        <ele>231.33</ele>
        <time>2013-03-27T04:51:50Z</time>
      </trkpt>
      <trkpt lat="49.07534" lon="7.13547">
        <ele>228.45</ele>
        <time>2013-03-27T04:51:54Z</time>
      </trkpt>
      <trkpt lat="49.07538" lon="7.13551">
        <ele>226.05</ele>
        <time>2013-03-27T04:51:58Z</time>
      </trkpt>
      <trkpt lat="49.07546" lon="7.13553">
        <ele>224.61</ele>
        <time>2013-03-27T04:52:04Z</time>
      </trkpt>
      <trkpt lat="49.0755" lon="7.13554">
        <ele>223.16</ele>
        <time>2013-03-27T04:52:07Z</time>
      </trkpt>
      <trkpt lat="49.07564" lon="7.13561">
        <ele>219.8</ele>
        <time>2013-03-27T04:52:19Z</time>
      </trkpt>
      <trkpt lat="49.07581" lon="7.13575">
        <ele>216.91</ele>
        <time>2013-03-27T04:52:34Z</time>
      </trkpt>
      <trkpt lat="49.07602" lon="7.13588">
        <ele>214.03</ele>
        <time>2013-03-27T04:52:55Z</time>
      </trkpt>
      <trkpt lat="49.07619" lon="7.13597">
        <ele>214.03</ele>
        <time>2013-03-27T04:53:18Z</time>
      </trkpt>
      <trkpt lat="49.07642" lon="7.13612">
        <ele>213.07</ele>
        <time>2013-03-27T04:53:41Z</time>
      </trkpt>
      <trkpt lat="49.07677" lon="7.13624">
        <ele>211.15</ele>
        <time>2013-03-27T04:54:04Z</time>
      </trkpt>
      <trkpt lat="49.07689" lon="7.13622">
        <ele>211.15</ele>
        <time>2013-03-27T04:54:28Z</time>
      </trkpt>
      <trkpt lat="49.07689" lon="7.13622">
        <ele>211.15</ele>
        <time>2013-03-27T04:54:37Z</time>
      </trkpt>
      <trkpt lat="49.07702" lon="7.13629">
        <ele>210.67</ele>
        <time>2013-03-27T04:54:54Z</time>
      </trkpt>
      <trkpt lat="49.0772" lon="7.13625">
        <ele>210.19</ele>
        <time>2013-03-27T04:55:16Z</time>
      </trkpt>
      <trkpt lat="49.07754" lon="7.13611">
        <ele>210.19</ele>
        <time>2013-03-27T04:55:41Z</time>
      </trkpt>
      <trkpt lat="49.07757" lon="7.13604">
        <ele>210.19</ele>
        <time>2013-03-27T04:55:57Z</time>
      </trkpt>
      <trkpt lat="49.07781" lon="7.13591">
        <ele>210.19</ele>
        <time>2013-03-27T04:56:21Z</time>
      </trkpt>
      <trkpt lat="49.07805" lon="7.13583">
        <ele>210.67</ele>
        <time>2013-03-27T04:56:48Z</time>
      </trkpt>
      <trkpt lat="49.07809" lon="7.13581">
        <ele>210.67</ele>
        <time>2013-03-27T04:56:52Z</time>
      </trkpt>
      <trkpt lat="49.07833" lon="7.13571">
        <ele>210.67</ele>
        <time>2013-03-27T04:57:16Z</time>
      </trkpt>
      <trkpt lat="49.07856" lon="7.13565">
        <ele>210.67</ele>
        <time>2013-03-27T04:57:39Z</time>
      </trkpt>
      <trkpt lat="49.07867" lon="7.13563">
        <ele>210.19</ele>
        <time>2013-03-27T04:57:59Z</time>
      </trkpt>
      <trkpt lat="49.079" lon="7.13552">
        <ele>209.7</ele>
        <time>2013-03-27T04:58:25Z</time>
      </trkpt>
      <trkpt lat="49.07921" lon="7.13542">
        <ele>210.19</ele>
        <time>2013-03-27T04:58:41Z</time>
      </trkpt>
      <trkpt lat="49.07921" lon="7.13534">
        <ele>209.22</ele>
        <time>2013-03-27T04:58:47Z</time>
      </trkpt>
      <trkpt lat="49.07921" lon="7.13528">
        <ele>209.7</ele>
        <time>2013-03-27T04:58:50Z</time>
      </trkpt>
      <trkpt lat="49.07925" lon="7.13491">
        <ele>210.19</ele>
        <time>2013-03-27T04:59:11Z</time>
      </trkpt>
      <trkpt lat="49.07929" lon="7.13456">
        <ele>212.11</ele>
        <time>2013-03-27T04:59:28Z</time>
      </trkpt>
      <trkpt lat="49.07944" lon="7.13437">
        <ele>213.07</ele>
        <time>2013-03-27T04:59:48Z</time>
      </trkpt>
      <trkpt lat="49.07966" lon="7.13412">
        <ele>215.95</ele>
        <time>2013-03-27T05:00:10Z</time>
      </trkpt>
      <trkpt lat="49.07979" lon="7.13379">
        <ele>218.36</ele>
        <time>2013-03-27T05:00:33Z</time>
      </trkpt>
      <trkpt lat="49.07993" lon="7.13348">
        <ele>220.76</ele>
        <time>2013-03-27T05:00:58Z</time>
      </trkpt>
      <trkpt lat="49.08004" lon="7.13343">
        <ele>222.2</ele>
        <time>2013-03-27T05:01:15Z</time>
      </trkpt>
      <trkpt lat="49.0801" lon="7.13334">
        <ele>222.2</ele>
        <time>2013-03-27T05:01:23Z</time>
      </trkpt>
      <trkpt lat="49.08012" lon="7.13333">
        <ele>221.72</ele>
        <time>2013-03-27T05:01:27Z</time>
      </trkpt>
      <trkpt lat="49.08052" lon="7.13313">
        <ele>221.24</ele>
        <time>2013-03-27T05:01:57Z</time>
      </trkpt>
      <trkpt lat="49.0809" lon="7.13298">
        <ele>221.72</ele>
        <time>2013-03-27T05:02:25Z</time>
      </trkpt>
      <trkpt lat="49.08125" lon="7.13276">
        <ele>222.68</ele>
        <time>2013-03-27T05:02:55Z</time>
      </trkpt>
      <trkpt lat="49.08136" lon="7.13269">
        <ele>222.2</ele>
        <time>2013-03-27T05:03:19Z</time>
      </trkpt>
      <trkpt lat="49.08174" lon="7.13255">
        <ele>221.24</ele>
        <time>2013-03-27T05:03:45Z</time>
      </trkpt>
      <trkpt lat="49.08198" lon="7.13244">
        <ele>220.76</ele>
        <time>2013-03-27T05:04:11Z</time>
      </trkpt>
      <trkpt lat="49.08216" lon="7.13235">
        <ele>220.28</ele>
        <time>2013-03-27T05:04:30Z</time>
      </trkpt>
      <trkpt lat="49.08258" lon="7.13215">
        <ele>221.72</ele>
        <time>2013-03-27T05:05:01Z</time>
      </trkpt>
      <trkpt lat="49.08289" lon="7.13199">
        <ele>221.72</ele>
        <time>2013-03-27T05:05:25Z</time>
      </trkpt>
      <trkpt lat="49.0833" lon="7.13179">
        <ele>222.2</ele>
        <time>2013-03-27T05:05:55Z</time>
      </trkpt>
      <trkpt lat="49.08372" lon="7.13158">
        <ele>222.2</ele>
        <time>2013-03-27T05:06:25Z</time>
      </trkpt>
      <trkpt lat="49.08414" lon="7.13127">
        <ele>222.68</ele>
        <time>2013-03-27T05:06:58Z</time>
      </trkpt>
      <trkpt lat="49.08444" lon="7.13099">
        <ele>224.61</ele>
        <time>2013-03-27T05:07:25Z</time>
      </trkpt>
      <trkpt lat="49.08473" lon="7.13065">
        <ele>226.53</ele>
        <time>2013-03-27T05:07:53Z</time>
      </trkpt>
      <trkpt lat="49.08487" lon="7.13045">
        <ele>227.97</ele>
        <time>2013-03-27T05:08:07Z</time>
      </trkpt>
      <trkpt lat="49.08508" lon="7.1301">
        <ele>229.89</ele>
        <time>2013-03-27T05:08:33Z</time>
      </trkpt>
      <trkpt lat="49.08507" lon="7.12969">
        <ele>230.85</ele>
        <time>2013-03-27T05:08:59Z</time>
      </trkpt>
      <trkpt lat="49.08489" lon="7.12953">
        <ele>233.26</ele>
        <time>2013-03-27T05:09:26Z</time>
      </trkpt>
      <trkpt lat="49.08451" lon="7.1293">
        <ele>235.66</ele>
        <time>2013-03-27T05:09:55Z</time>
      </trkpt>
      <trkpt lat="49.08419" lon="7.12909">
        <ele>237.1</ele>
        <time>2013-03-27T05:10:22Z</time>
      </trkpt>
      <trkpt lat="49.08385" lon="7.12892">
        <ele>239.51</ele>
        <time>2013-03-27T05:10:48Z</time>
      </trkpt>
      <trkpt lat="49.0835" lon="7.1287">
        <ele>240.47</ele>
        <time>2013-03-27T05:11:15Z</time>
      </trkpt>
      <trkpt lat="49.08343" lon="7.12869">
        <ele>240.95</ele>
        <time>2013-03-27T05:11:31Z</time>
      </trkpt>
      <trkpt lat="49.08304" lon="7.12846">
        <ele>241.91</ele>
        <time>2013-03-27T05:12:02Z</time>
      </trkpt>
      <trkpt lat="49.08272" lon="7.12835">
        <ele>242.87</ele>
        <time>2013-03-27T05:12:27Z</time>
      </trkpt>
      <trkpt lat="49.08245" lon="7.12823">
        <ele>243.83</ele>
        <time>2013-03-27T05:12:50Z</time>
      </trkpt>
      <trkpt lat="49.08214" lon="7.1281">
        <ele>244.31</ele>
        <time>2013-03-27T05:13:13Z</time>
      </trkpt>
      <trkpt lat="49.08212" lon="7.12812">
        <ele>245.27</ele>
        <time>2013-03-27T05:13:15Z</time>
      </trkpt>
      <trkpt lat="49.08207" lon="7.12817">
        <ele>245.27</ele>
        <time>2013-03-27T05:13:20Z</time>
      </trkpt>
      <trkpt lat="49.08191" lon="7.12868">
        <ele>244.31</ele>
        <time>2013-03-27T05:13:48Z</time>
      </trkpt>
      <trkpt lat="49.08187" lon="7.12882">
        <ele>243.83</ele>
        <time>2013-03-27T05:13:55Z</time>
      </trkpt>
      <trkpt lat="49.08167" lon="7.12947">
        <ele>242.39</ele>
        <time>2013-03-27T05:14:27Z</time>
      </trkpt>
      <trkpt lat="49.08141" lon="7.13007">
        <ele>241.43</ele>
        <time>2013-03-27T05:14:57Z</time>
      </trkpt>
      <trkpt lat="49.08136" lon="7.13016">
        <ele>240.95</ele>
        <time>2013-03-27T05:15:07Z</time>
      </trkpt>
      <trkpt lat="49.08115" lon="7.13052">
        <ele>241.91</ele>
        <time>2013-03-27T05:15:32Z</time>
      </trkpt>
      <trkpt lat="49.08107" lon="7.13058">
        <ele>241.91</ele>
        <time>2013-03-27T05:15:43Z</time>
      </trkpt>
      <trkpt lat="49.08099" lon="7.13063">
        <ele>241.91</ele>
        <time>2013-03-27T05:15:50Z</time>
      </trkpt>
      <trkpt lat="49.08094" lon="7.13077">
        <ele>241.43</ele>
        <time>2013-03-27T05:15:58Z</time>
      </trkpt>
      <trkpt lat="49.08082" lon="7.13075">
        <ele>241.91</ele>
        <time>2013-03-27T05:16:06Z</time>
      </trkpt>
      <trkpt lat="49.0807" lon="7.13069">
        <ele>243.35</ele>
        <time>2013-03-27T05:16:15Z</time>
      </trkpt>
      <trkpt lat="49.08024" lon="7.13094">
        <ele>244.79</ele>
        <time>2013-03-27T05:16:50Z</time>
      </trkpt>
      <trkpt lat="49.07983" lon="7.13126">
        <ele>243.83</ele>
        <time>2013-03-27T05:17:21Z</time>
      </trkpt>
      <trkpt lat="49.07949" lon="7.13156">
        <ele>241.43</ele>
        <time>2013-03-27T05:17:49Z</time>
      </trkpt>
      <trkpt lat="49.07912" lon="7.13179">
        <ele>239.51</ele>
        <time>2013-03-27T05:18:16Z</time>
      </trkpt>
      <trkpt lat="49.0787" lon="7.13183">
        <ele>238.06</ele>
        <time>2013-03-27T05:18:45Z</time>
      </trkpt>
      <trkpt lat="49.07842" lon="7.13155">
        <ele>239.51</ele>
        <time>2013-03-27T05:19:10Z</time>
      </trkpt>
      <trkpt lat="49.07813" lon="7.13165">
        <ele>240.47</ele>
        <time>2013-03-27T05:19:33Z</time>
      </trkpt>
      <trkpt lat="49.07769" lon="7.13191">
        <ele>240.95</ele>
        <time>2013-03-27T05:20:08Z</time>
      </trkpt>
      <trkpt lat="49.07768" lon="7.13191">
        <ele>240.47</ele>
        <time>2013-03-27T05:20:11Z</time>
      </trkpt>
      <trkpt lat="49.0774" lon="7.13199">
        <ele>239.99</ele>
        <time>2013-03-27T05:20:42Z</time>
      </trkpt>
      <trkpt lat="49.07717" lon="7.13208">
        <ele>239.51</ele>
        <time>2013-03-27T05:21:06Z</time>
      </trkpt>
      <trkpt lat="49.07696" lon="7.13213">
        <ele>239.51</ele>
        <time>2013-03-27T05:21:23Z</time>
      </trkpt>
      <trkpt lat="49.07655" lon="7.13224">
        <ele>239.02</ele>
        <time>2013-03-27T05:21:53Z</time>
      </trkpt>
      <trkpt lat="49.07645" lon="7.13259">
        <ele>236.62</ele>
        <time>2013-03-27T05:22:17Z</time>
      </trkpt>
      <trkpt lat="49.07643" lon="7.13317">
        <ele>233.74</ele>
        <time>2013-03-27T05:22:44Z</time>
      </trkpt>
      <trkpt lat="49.07648" lon="7.13373">
        <ele>230.85</ele>
        <time>2013-03-27T05:23:11Z</time>
      </trkpt>
      <trkpt lat="49.0765" lon="7.1342">
        <ele>227.49</ele>
        <time>2013-03-27T05:23:34Z</time>
      </trkpt>
      <trkpt lat="49.07641" lon="7.13447">
        <ele>227.01</ele>
        <time>2013-03-27T05:23:47Z</time>
      </trkpt>
      <trkpt lat="49.07644" lon="7.13448">
        <ele>227.49</ele>
        <time>2013-03-27T05:23:59Z</time>
      </trkpt>
      <trkpt lat="49.07597" lon="7.13466">
        <ele>224.12</ele>
        <time>2013-03-27T05:24:31Z</time>
      </trkpt>
      <trkpt lat="49.07571" lon="7.13479">
        <ele>222.68</ele>
        <time>2013-03-27T05:24:51Z</time>
      </trkpt>
      <trkpt lat="49.07578" lon="7.13507">
        <ele>223.16</ele>
        <time>2013-03-27T05:25:10Z</time>
      </trkpt>
      <trkpt lat="49.07606" lon="7.13527">
        <ele>221.24</ele>
        <time>2013-03-27T05:25:34Z</time>
      </trkpt>
      <trkpt lat="49.07632" lon="7.13525">
        <ele>219.8</ele>
        <time>2013-03-27T05:25:52Z</time>
      </trkpt>
      <trkpt lat="49.07661" lon="7.13537">
        <ele>216.43</ele>
        <time>2013-03-27T05:26:16Z</time>
      </trkpt>
      <trkpt lat="49.07663" lon="7.13574">
        <ele>214.03</ele>
        <time>2013-03-27T05:26:36Z</time>
      </trkpt>
      <trkpt lat="49.07664" lon="7.13612">
        <ele>212.11</ele>
        <time>2013-03-27T05:26:54Z</time>
      </trkpt>
      <trkpt lat="49.0763" lon="7.13607">
        <ele>213.55</ele>
        <time>2013-03-27T05:27:18Z</time>
      </trkpt>
      <trkpt lat="49.07601" lon="7.13588">
        <ele>214.03</ele>
        <time>2013-03-27T05:27:40Z</time>
      </trkpt>
      <trkpt lat="49.07563" lon="7.13566">
        <ele>214.03</ele>
        <time>2013-03-27T05:28:09Z</time>
      </trkpt>
      <trkpt lat="49.07527" lon="7.13545">
        <ele>215.95</ele>
        <time>2013-03-27T05:28:37Z</time>
      </trkpt>
      <trkpt lat="49.07505" lon="7.13542">
        <ele>218.84</ele>
        <time>2013-03-27T05:28:56Z</time>
      </trkpt>
      <trkpt lat="49.07493" lon="7.13549">
        <ele>219.8</ele>
        <time>2013-03-27T05:29:22Z</time>
      </trkpt>
      <trkpt lat="49.07491" lon="7.13551">
        <ele>219.8</ele>
        <time>2013-03-27T05:29:37Z</time>
      </trkpt>
    </trkseg>
  </trk>
</gpx>